Time;durP1;ratioP1;P1;durP2;ratioP2;P2;SDS_P1;SDS_P2;PMS_P1;PMS_P2;Temp;Humidity;BMP_temperature;BMP_pressure;BME280_temperature;BME280_humidity;BME280_pressure;Samples;Min_cycle;Max_cycle;Signal;HPM_P1;HPM_P2
2022/11/28 00:00:32;;;;;;;10.45;5.03;;;8.10;99.90;;;;;;4165954;28;20025;-67
2022/11/28 00:02:32;;;;;;;13.43;5.32;;;8.10;99.90;;;;;;4163670;28;20472;-67
2022/11/28 00:04:33;;;;;;;7.82;4.60;;;8.10;99.90;;;;;;4163774;28;20033;-67
2022/11/28 00:06:38;;;;;;;7.68;4.57;;;8.10;99.90;;;;;;4169025;28;20024;-67
2022/11/28 00:08:39;;;;;;;8.65;5.30;;;8.20;99.90;;;;;;4180201;28;20025;-67
2022/11/28 00:10:40;;;;;;;12.18;5.35;;;8.10;99.90;;;;;;4160897;28;20403;-66
2022/11/28 00:12:41;;;;;;;8.15;4.70;;;8.10;99.90;;;;;;4165506;28;20033;-69
2022/11/28 00:14:41;;;;;;;16.02;4.88;;;8.10;99.90;;;;;;4163754;28;20503;-68
2022/11/28 00:16:42;;;;;;;9.50;5.03;;;8.10;99.90;;;;;;4162945;28;20049;-67
2022/11/28 00:18:43;;;;;;;13.25;5.25;;;8.10;99.90;;;;;;4163793;28;20108;-67
2022/11/28 00:20:44;;;;;;;7.93;4.90;;;8.10;99.90;;;;;;4165583;28;20039;-67
2022/11/28 00:22:44;;;;;;;15.10;5.22;;;8.10;99.90;;;;;;4176282;28;20033;-67
2022/11/28 00:24:45;;;;;;;8.30;5.20;;;8.10;99.90;;;;;;4179816;28;20065;-67
2022/11/28 00:26:45;;;;;;;11.10;5.40;;;8.10;99.90;;;;;;4179008;28;20033;-66
2022/11/28 00:28:46;;;;;;;8.32;5.00;;;8.10;99.90;;;;;;4179675;28;20036;-67
2022/11/28 00:30:47;;;;;;;9.32;5.18;;;8.10;99.90;;;;;;4166611;28;20079;-67
2022/11/28 00:32:47;;;;;;;10.43;5.60;;;8.10;99.90;;;;;;4174630;28;20037;-67
2022/11/28 00:34:48;;;;;;;10.38;5.75;;;8.10;99.90;;;;;;4179721;28;20048;-67
2022/11/28 00:36:48;;;;;;;9.57;5.05;;;8.10;99.90;;;;;;4175909;28;20021;-67
2022/11/28 00:38:50;;;;;;;9.80;5.55;;;8.10;99.90;;;;;;4163138;28;20038;-66
2022/11/28 00:41:01;;;;;;;10.93;5.93;;;8.10;99.90;;;;;;4176096;28;20124;-67
2022/11/28 00:43:02;;;;;;;11.32;5.53;;;8.10;99.90;;;;;;4167928;28;20129;-67
2022/11/28 00:45:02;;;;;;;8.10;5.20;;;8.10;99.90;;;;;;4159324;28;20037;-67
2022/11/28 00:47:03;;;;;;;8.73;5.40;;;8.10;99.90;;;;;;4165042;28;20063;-67
2022/11/28 00:49:04;;;;;;;10.20;5.60;;;8.10;99.90;;;;;;4179127;28;20037;-66
2022/11/28 00:51:10;;;;;;;10.35;5.63;;;8.10;99.90;;;;;;4173077;28;20033;-67
2022/11/28 00:53:11;;;;;;;10.05;4.90;;;8.10;99.90;;;;;;4179304;28;20375;-66
2022/11/28 00:55:11;;;;;;;9.10;5.50;;;8.10;99.90;;;;;;4178856;28;20100;-67
2022/11/28 00:57:12;;;;;;;7.22;4.72;;;8.20;99.90;;;;;;4177506;28;20495;-67
2022/11/28 00:59:12;;;;;;;9.85;4.55;;;8.20;99.90;;;;;;4169773;28;20349;-67
2022/11/28 01:01:19;;;;;;;8.18;5.28;;;8.20;99.90;;;;;;4181295;28;20059;-68
2022/11/28 01:03:19;;;;;;;7.63;4.60;;;8.20;99.90;;;;;;4178386;28;20029;-67
2022/11/28 01:05:20;;;;;;;8.55;5.40;;;8.20;99.90;;;;;;4189455;28;20495;-67
2022/11/28 01:07:20;;;;;;;7.78;4.85;;;8.10;99.90;;;;;;4162059;28;20400;-67
2022/11/28 01:09:23;;;;;;;10.05;5.13;;;8.20;99.90;;;;;;4164979;28;20116;-67
2022/11/28 01:11:24;;;;;;;9.68;5.55;;;8.20;99.90;;;;;;4177399;28;20052;-67
2022/11/28 01:13:24;;;;;;;8.02;4.90;;;8.20;99.90;;;;;;4170304;28;20042;-67
2022/11/28 01:15:25;;;;;;;13.50;5.55;;;8.20;99.90;;;;;;4161639;28;21340;-67
2022/11/28 01:17:26;;;;;;;6.63;4.45;;;8.20;99.90;;;;;;4177783;28;20041;-67
2022/11/28 01:19:26;;;;;;;10.35;4.72;;;8.10;99.90;;;;;;4165485;28;20040;-67
2022/11/28 01:21:27;;;;;;;9.75;5.25;;;8.10;99.90;;;;;;4161507;28;20037;-67
2022/11/28 01:23:28;;;;;;;8.40;5.07;;;8.10;99.90;;;;;;4162171;28;20033;-67
2022/11/28 01:25:29;;;;;;;6.85;4.38;;;8.10;99.90;;;;;;4161321;28;20447;-67
2022/11/28 01:27:29;;;;;;;8.05;4.82;;;8.10;99.90;;;;;;4190795;28;20039;-67
2022/11/28 01:29:30;;;;;;;9.45;4.70;;;8.20;99.90;;;;;;4168050;28;20041;-67
2022/11/28 01:31:31;;;;;;;8.50;5.15;;;8.20;99.90;;;;;;4161601;28;20065;-67
2022/11/28 01:33:31;;;;;;;8.30;4.60;;;8.20;99.90;;;;;;4162349;28;20044;-67
2022/11/28 01:35:32;;;;;;;10.15;4.93;;;8.20;99.90;;;;;;4161583;28;20143;-67
2022/11/28 01:37:33;;;;;;;8.38;4.75;;;8.20;99.90;;;;;;4190812;28;20049;-67
2022/11/28 01:39:33;;;;;;;7.50;4.53;;;8.20;99.90;;;;;;4171128;28;20032;-67
2022/11/28 01:41:34;;;;;;;9.13;4.93;;;8.20;99.90;;;;;;4161542;28;20034;-67
2022/11/28 01:43:35;;;;;;;7.50;4.30;;;8.20;99.90;;;;;;4166423;28;20399;-66
2022/11/28 01:45:38;;;;;;;9.25;4.75;;;8.20;99.90;;;;;;4177922;28;20363;-66
2022/11/28 01:47:40;;;;;;;8.98;4.65;;;8.20;99.90;;;;;;4175266;28;20032;-66
2022/11/28 01:49:42;;;;;;;7.70;4.57;;;8.30;99.90;;;;;;4173731;28;20496;-67
2022/11/28 01:51:54;;;;;;;10.18;4.47;;;8.20;99.90;;;;;;4177776;28;20036;-66
2022/11/28 01:53:55;;;;;;;9.68;4.68;;;8.30;99.90;;;;;;4177749;28;20048;-67
2022/11/28 01:56:08;;;;;;;9.35;4.85;;;8.30;99.90;;;;;;4178142;28;20055;-67
2022/11/28 01:58:10;;;;;;;9.45;4.57;;;8.30;99.90;;;;;;4194797;28;20078;-67
2022/11/28 02:00:16;;;;;;;6.85;4.40;;;8.30;99.90;;;;;;4170856;28;20022;-67
2022/11/28 02:02:38;;;;;;;6.95;4.45;;;8.30;99.90;;;;;;4177964;28;20112;-67
2022/11/28 02:04:40;;;;;;;7.95;4.63;;;8.30;99.90;;;;;;4168647;28;20087;-67
2022/11/28 02:06:42;;;;;;;9.50;5.03;;;8.30;99.90;;;;;;4168173;28;20517;-67
2022/11/28 02:08:42;;;;;;;7.72;4.97;;;8.30;99.90;;;;;;4165276;28;20103;-67
2022/11/28 02:10:52;;;;;;;11.93;5.45;;;8.30;99.90;;;;;;4173459;28;20560;-67
2022/11/28 02:13:01;;;;;;;7.88;4.63;;;8.20;99.90;;;;;;4178202;28;20040;-67
2022/11/28 02:15:15;;;;;;;8.38;4.78;;;8.20;99.90;;;;;;4177602;28;20028;-68
2022/11/28 02:17:33;;;;;;;8.45;4.63;;;8.30;99.90;;;;;;4185702;28;20016;-66
2022/11/28 02:19:57;;;;;;;9.02;5.18;;;8.30;99.90;;;;;;4185609;28;20043;-67
2022/11/28 02:22:05;;;;;;;9.65;5.30;;;8.20;99.90;;;;;;4180117;28;20021;-67
2022/11/28 02:24:30;;;;;;;9.77;4.55;;;8.20;99.90;;;;;;4193556;28;20024;-66
2022/11/28 02:27:00;;;;;;;8.95;5.07;;;8.20;99.90;;;;;;4178175;28;20029;-67
2022/11/28 02:29:24;;;;;;;8.30;4.90;;;8.30;99.90;;;;;;4193342;28;20514;-66
2022/11/28 02:31:49;;;;;;;9.68;5.30;;;8.30;99.90;;;;;;4176075;28;20036;-67
2022/11/28 02:33:57;;;;;;;8.10;4.78;;;8.20;99.90;;;;;;4177418;28;20036;-67
2022/11/28 02:36:15;;;;;;;8.57;4.47;;;8.20;99.90;;;;;;4163053;28;20022;-66
2022/11/28 02:38:22;;;;;;;8.32;4.75;;;8.20;99.90;;;;;;4177076;28;20025;-66
2022/11/28 02:40:26;;;;;;;8.20;5.03;;;8.20;99.90;;;;;;4171709;28;20037;-67
2022/11/28 02:42:49;;;;;;;8.13;5.38;;;8.20;99.90;;;;;;4178110;28;20025;-66
2022/11/28 02:45:08;;;;;;;9.50;5.57;;;8.20;99.90;;;;;;4177386;28;20495;-67
2022/11/28 02:47:15;;;;;;;10.73;5.40;;;8.30;99.90;;;;;;4177329;28;20378;-66
2022/11/28 02:49:22;;;;;;;9.77;5.28;;;8.20;99.90;;;;;;4176647;28;20043;-66
2022/11/28 02:51:47;;;;;;;8.52;5.25;;;8.20;99.90;;;;;;4175983;28;20033;-67
2022/11/28 02:53:49;;;;;;;8.52;5.10;;;8.20;99.90;;;;;;4175914;28;20036;-68
2022/11/28 02:55:51;;;;;;;5.88;4.57;;;8.20;99.90;;;;;;4173427;28;20388;-67
2022/11/28 02:57:53;;;;;;;6.90;5.20;;;8.10;99.90;;;;;;4178378;28;20025;-67
2022/11/28 02:59:54;;;;;;;9.27;5.53;;;8.20;99.90;;;;;;4158055;28;20038;-68
2022/11/28 03:01:55;;;;;;;9.07;4.85;;;8.10;99.90;;;;;;4176739;28;20072;-67
2022/11/28 03:04:02;;;;;;;7.75;4.85;;;8.20;99.90;;;;;;4180569;28;20562;-67
2022/11/28 03:06:34;;;;;;;10.23;5.35;;;8.10;99.90;;;;;;4171370;28;20029;-66
2022/11/28 03:09:00;;;;;;;9.70;5.20;;;8.10;99.90;;;;;;4171237;28;20411;-67
2022/11/28 03:11:17;;;;;;;10.27;5.35;;;8.10;99.90;;;;;;4168279;28;20376;-66
2022/11/28 03:13:43;;;;;;;9.07;4.65;;;8.10;99.90;;;;;;4171771;28;20086;-68
2022/11/28 03:16:06;;;;;;;7.90;4.78;;;8.10;99.90;;;;;;4166121;28;20021;-67
2022/11/28 03:18:22;;;;;;;8.60;5.05;;;8.10;99.90;;;;;;4169322;28;20030;-66
2022/11/28 03:20:44;;;;;;;12.77;5.43;;;8.10;99.90;;;;;;4164008;28;21190;-66
2022/11/28 03:22:47;;;;;;;10.05;5.30;;;8.10;99.90;;;;;;4169460;28;20109;-67
2022/11/28 03:25:11;;;;;;;9.45;5.38;;;8.00;99.90;;;;;;4171659;28;20455;-68
2022/11/28 03:27:19;;;;;;;8.02;5.10;;;8.00;99.90;;;;;;4168501;28;20029;-66
2022/11/28 03:30:01;;;;;;;7.95;5.03;;;8.00;99.90;;;;;;4170076;28;20045;-67
2022/11/28 03:32:09;;;;;;;9.02;5.28;;;8.00;99.90;;;;;;4113447;28;20493;-67
2022/11/28 03:34:15;;;;;;;8.05;5.25;;;8.00;99.90;;;;;;4113015;28;20094;-66
2022/11/28 03:36:28;;;;;;;10.50;5.38;;;8.00;99.90;;;;;;4112650;28;20572;-66
2022/11/28 03:38:40;;;;;;;8.70;5.05;;;8.00;99.90;;;;;;4169630;28;20487;-66
2022/11/28 03:40:46;;;;;;;8.77;5.20;;;8.00;99.90;;;;;;4169783;28;20112;-66
2022/11/28 03:42:53;;;;;;;10.02;5.38;;;8.00;99.90;;;;;;4165501;28;20029;-67
2022/11/28 03:45:02;;;;;;;9.38;5.93;;;8.00;99.90;;;;;;4171608;28;20044;-67
2022/11/28 03:47:04;;;;;;;8.95;5.10;;;8.00;99.90;;;;;;4167771;28;20033;-66
2022/11/28 03:49:08;;;;;;;8.55;5.63;;;8.00;99.90;;;;;;4170943;28;20029;-66
2022/11/28 03:51:11;;;;;;;8.70;5.22;;;8.00;99.90;;;;;;4151385;28;20044;-66
2022/11/28 03:53:26;;;;;;;8.93;5.35;;;8.00;99.90;;;;;;4171481;28;20049;-67
2022/11/28 03:55:32;;;;;;;10.35;5.78;;;7.90;99.90;;;;;;4169992;28;20049;-66
2022/11/28 03:57:55;;;;;;;9.15;5.32;;;7.90;99.90;;;;;;4168819;28;20074;-67
2022/11/28 03:59:59;;;;;;;10.45;5.30;;;7.90;99.90;;;;;;4167620;28;20086;-67
2022/11/28 04:03:00;;;;;;;8.77;5.22;;;7.90;99.90;;;;;;4169436;28;20044;-66
2022/11/28 04:05:17;;;;;;;12.75;6.45;;;7.90;99.90;;;;;;4095903;28;20099;-67
2022/11/28 04:07:36;;;;;;;12.13;6.22;;;7.90;99.90;;;;;;4093557;28;20519;-67
2022/11/28 04:09:55;;;;;;;9.40;5.88;;;7.90;99.90;;;;;;4103385;28;20049;-66
2022/11/28 04:12:08;;;;;;;9.63;5.82;;;7.80;99.90;;;;;;4159765;28;20038;-67
2022/11/28 04:14:19;;;;;;;9.57;5.40;;;7.80;99.90;;;;;;4160905;28;20037;-66
2022/11/28 04:16:37;;;;;;;8.55;5.05;;;7.80;99.90;;;;;;4161719;28;20040;-67
2022/11/28 04:18:38;;;;;;;11.13;5.80;;;7.80;99.90;;;;;;4162547;28;20041;-67
2022/11/28 04:20:54;;;;;;;10.23;6.00;;;7.80;99.90;;;;;;4160888;28;20030;-67
2022/11/28 04:22:59;;;;;;;8.43;5.57;;;7.80;99.90;;;;;;4161355;28;20049;-67
2022/11/28 04:25:05;;;;;;;8.65;5.43;;;7.90;99.90;;;;;;4162380;28;20120;-67
2022/11/28 04:27:11;;;;;;;8.63;5.57;;;7.90;99.90;;;;;;4162125;28;20026;-67
2022/11/28 04:29:16;;;;;;;7.72;5.15;;;7.90;99.90;;;;;;4162224;28;20113;-67
2022/11/28 04:31:21;;;;;;;9.25;5.15;;;7.90;99.90;;;;;;4161540;28;20049;-67
2022/11/28 04:33:24;;;;;;;10.05;5.88;;;7.90;99.90;;;;;;4161890;28;20037;-67
2022/11/28 04:35:32;;;;;;;13.38;6.22;;;7.90;99.90;;;;;;4161693;28;20033;-67
2022/11/28 04:37:35;;;;;;;8.68;5.72;;;8.00;99.90;;;;;;4162720;28;20072;-67
2022/11/28 04:39:38;;;;;;;9.77;5.72;;;7.90;99.90;;;;;;4161109;28;20029;-67
2022/11/28 04:41:48;;;;;;;8.07;5.15;;;7.90;99.90;;;;;;4162322;28;20041;-66
2022/11/28 04:43:58;;;;;;;9.98;5.50;;;7.90;99.90;;;;;;4149352;28;20034;-68
2022/11/28 04:46:08;;;;;;;9.38;5.43;;;8.00;99.90;;;;;;4145724;28;20099;-67
2022/11/28 04:48:09;;;;;;;8.48;6.03;;;8.00;99.90;;;;;;4161548;28;20052;-67
2022/11/28 04:50:10;;;;;;;9.15;5.70;;;7.90;99.90;;;;;;4159966;28;20042;-68
2022/11/28 04:52:19;;;;;;;10.27;6.18;;;8.00;99.90;;;;;;4162839;28;20029;-66
2022/11/28 04:54:51;;;;;;;10.05;6.20;;;7.90;99.90;;;;;;4147240;28;20029;-66
2022/11/28 04:56:58;;;;;;;13.20;6.63;;;7.90;99.90;;;;;;4145637;28;20030;-66
2022/11/28 04:58:59;;;;;;;10.25;6.35;;;7.80;99.90;;;;;;4146261;28;20113;-66
2022/11/28 05:01:03;;;;;;;10.32;5.82;;;7.90;99.90;;;;;;4159453;28;20040;-67
2022/11/28 05:03:05;;;;;;;9.60;5.75;;;7.90;99.90;;;;;;4161956;28;20021;-66
2022/11/28 05:05:10;;;;;;;9.40;5.97;;;7.90;99.90;;;;;;4165326;28;20030;-68
2022/11/28 05:07:10;;;;;;;11.10;6.20;;;7.90;99.90;;;;;;4176988;28;20043;-65
2022/11/28 05:09:12;;;;;;;10.85;6.35;;;7.90;99.90;;;;;;4176959;28;20047;-66
2022/11/28 05:11:12;;;;;;;9.93;6.28;;;7.90;99.90;;;;;;4185064;28;20399;-66
2022/11/28 05:13:13;;;;;;;8.75;5.75;;;7.90;99.90;;;;;;4190702;28;20048;-66
2022/11/28 05:15:17;;;;;;;10.35;6.22;;;7.90;99.90;;;;;;4187162;28;20033;-66
2022/11/28 05:17:18;;;;;;;10.48;5.97;;;7.90;99.90;;;;;;4182856;28;20048;-65
2022/11/28 05:19:19;;;;;;;12.15;6.07;;;7.90;99.90;;;;;;4186309;28;20020;-67
2022/11/28 05:21:19;;;;;;;12.85;5.95;;;7.90;99.90;;;;;;4171557;28;20087;-66
2022/11/28 05:23:20;;;;;;;7.85;5.38;;;7.80;99.90;;;;;;4177489;28;20353;-66
2022/11/28 05:25:21;;;;;;;11.85;6.05;;;7.80;99.90;;;;;;4185457;28;20085;-67
2022/11/28 05:27:21;;;;;;;10.45;6.25;;;7.80;99.90;;;;;;4186846;28;20029;-67
2022/11/28 05:29:23;;;;;;;9.02;5.95;;;7.80;99.90;;;;;;4173174;28;20036;-67
2022/11/28 05:31:24;;;;;;;10.65;6.03;;;7.80;99.90;;;;;;4178607;28;20067;-66
2022/11/28 05:33:24;;;;;;;10.30;6.80;;;7.80;99.90;;;;;;4184428;28;20091;-66
2022/11/28 05:35:25;;;;;;;10.82;6.47;;;7.80;99.90;;;;;;4185373;28;20055;-66
2022/11/28 05:37:25;;;;;;;11.82;6.22;;;7.80;99.90;;;;;;4159618;28;20079;-65
2022/11/28 05:39:26;;;;;;;11.48;6.22;;;7.80;99.90;;;;;;4171998;28;20091;-67
2022/11/28 05:41:29;;;;;;;12.10;6.32;;;7.80;99.90;;;;;;4182258;28;20033;-67
2022/11/28 05:43:30;;;;;;;10.77;6.97;;;7.80;99.90;;;;;;4179956;28;20048;-66
2022/11/28 05:45:31;;;;;;;9.88;6.15;;;7.80;99.90;;;;;;4180849;28;20037;-65
2022/11/28 05:47:32;;;;;;;11.50;5.90;;;7.80;99.90;;;;;;4178150;28;20091;-66
2022/11/28 05:49:33;;;;;;;11.50;6.28;;;7.80;99.90;;;;;;4175219;28;20411;-66
2022/11/28 05:51:33;;;;;;;11.38;6.55;;;7.80;99.90;;;;;;4173524;28;20040;-66
2022/11/28 05:53:34;;;;;;;9.98;5.65;;;7.80;99.90;;;;;;4190525;28;20047;-66
2022/11/28 05:55:38;;;;;;;9.68;5.75;;;7.80;99.90;;;;;;4183476;28;20047;-66
2022/11/28 05:57:38;;;;;;;12.40;6.90;;;7.80;99.90;;;;;;4181485;28;20044;-66
2022/11/28 05:59:39;;;;;;;9.95;6.15;;;7.80;99.90;;;;;;4174200;28;20037;-66
2022/11/28 06:01:40;;;;;;;9.27;5.68;;;7.80;99.90;;;;;;4180003;28;20060;-66
2022/11/28 06:03:41;;;;;;;10.18;6.40;;;7.80;99.90;;;;;;4187699;28;20040;-65
2022/11/28 06:05:42;;;;;;;12.63;6.90;;;7.70;99.90;;;;;;4177005;28;20117;-66
2022/11/28 06:07:43;;;;;;;11.88;6.18;;;7.70;99.90;;;;;;4190019;28;20044;-66
2022/11/28 06:09:44;;;;;;;10.45;6.20;;;7.80;99.90;;;;;;4175467;28;20444;-66
2022/11/28 06:11:44;;;;;;;8.77;5.88;;;7.80;99.90;;;;;;4178009;28;20029;-66
2022/11/28 06:13:46;;;;;;;12.05;6.55;;;7.80;99.90;;;;;;4177613;28;20387;-65
2022/11/28 06:15:47;;;;;;;9.50;5.77;;;7.80;99.90;;;;;;4177049;28;20037;-66
2022/11/28 06:17:47;;;;;;;9.93;5.93;;;7.90;99.90;;;;;;4179993;28;20691;-66
2022/11/28 06:19:48;;;;;;;9.63;6.43;;;7.90;99.90;;;;;;4177419;28;20032;-66
2022/11/28 06:21:49;;;;;;;9.65;5.25;;;7.90;99.90;;;;;;4176763;28;20040;-66
2022/11/28 06:23:50;;;;;;;10.23;6.25;;;7.90;99.90;;;;;;4174596;28;20032;-66
2022/11/28 06:25:51;;;;;;;9.45;6.10;;;7.90;99.90;;;;;;4179864;28;20033;-66
2022/11/28 06:27:51;;;;;;;8.88;5.88;;;7.90;99.90;;;;;;4178307;28;20410;-66
2022/11/28 06:29:52;;;;;;;9.93;6.05;;;7.90;99.90;;;;;;4185668;28;20032;-66
2022/11/28 06:31:54;;;;;;;11.13;6.13;;;7.90;99.90;;;;;;4157746;28;20106;-66
2022/11/28 06:33:56;;;;;;;13.75;6.40;;;7.90;99.90;;;;;;4183381;28;20086;-66
2022/11/28 06:36:01;;;;;;;8.93;5.82;;;7.90;99.90;;;;;;4185492;28;20032;-68
2022/11/28 06:38:02;;;;;;;12.02;6.50;;;7.90;99.90;;;;;;4194845;28;20117;-66
2022/11/28 06:40:04;;;;;;;8.07;5.80;;;7.90;99.90;;;;;;4192039;28;20429;-67
2022/11/28 06:42:05;;;;;;;11.57;6.13;;;7.90;99.90;;;;;;4194734;28;20440;-65
2022/11/28 06:44:06;;;;;;;14.82;5.78;;;7.90;99.90;;;;;;4192110;28;20040;-65
2022/11/28 06:46:16;;;;;;;13.88;8.15;;;8.00;99.90;;;;;;4183001;28;20045;-65
2022/11/28 06:48:16;;;;;;;10.77;7.05;;;7.90;99.90;;;;;;4194475;28;20035;-65
2022/11/28 06:50:17;;;;;;;11.27;6.70;;;8.00;99.90;;;;;;4183557;28;20045;-65
2022/11/28 06:52:18;;;;;;;11.82;6.88;;;8.00;99.90;;;;;;4168882;28;20045;-66
2022/11/28 06:54:18;;;;;;;10.77;6.78;;;8.00;99.90;;;;;;4167068;28;20052;-65
2022/11/28 06:56:19;;;;;;;10.23;6.13;;;7.90;99.90;;;;;;4173883;28;20044;-66
2022/11/28 06:58:20;;;;;;;10.60;6.60;;;7.90;99.90;;;;;;4171303;28;20033;-65
2022/11/28 07:00:20;;;;;;;11.95;6.40;;;8.00;99.90;;;;;;4170448;28;20028;-66
2022/11/28 07:02:23;;;;;;;9.73;5.90;;;8.00;99.90;;;;;;4171249;28;20030;-67
2022/11/28 07:04:24;;;;;;;8.02;5.50;;;8.00;99.90;;;;;;4169692;28;20041;-66
2022/11/28 07:06:25;;;;;;;7.50;5.55;;;8.00;99.90;;;;;;4172683;28;20787;-66
2022/11/28 07:08:26;;;;;;;8.40;5.78;;;8.00;99.90;;;;;;4169457;28;20041;-66
2022/11/28 07:10:27;;;;;;;9.20;5.20;;;8.00;99.90;;;;;;4170298;28;20046;-65
2022/11/28 07:12:28;;;;;;;9.40;6.05;;;8.00;99.90;;;;;;4171197;28;20063;-66
2022/11/28 07:14:32;;;;;;;9.82;5.57;;;8.00;99.90;;;;;;4168246;28;20037;-66
2022/11/28 07:16:32;;;;;;;9.45;5.70;;;7.90;99.90;;;;;;4170131;28;20037;-66
2022/11/28 07:18:33;;;;;;;11.07;6.18;;;8.00;99.90;;;;;;4171738;28;20125;-65
2022/11/28 07:20:34;;;;;;;10.00;6.65;;;8.00;99.90;;;;;;4171127;28;20033;-65
2022/11/28 07:22:35;;;;;;;10.25;5.85;;;7.90;99.90;;;;;;4166707;28;20044;-66
2022/11/28 07:24:35;;;;;;;9.93;6.10;;;7.90;99.90;;;;;;4166520;28;20500;-66
2022/11/28 07:26:36;;;;;;;10.02;5.97;;;8.00;99.90;;;;;;4174423;28;21549;-66
2022/11/28 07:28:38;;;;;;;7.63;5.38;;;8.00;99.90;;;;;;4175990;28;20049;-67
2022/11/28 07:30:38;;;;;;;8.15;5.30;;;8.00;99.90;;;;;;4174400;28;20041;-67
2022/11/28 07:32:39;;;;;;;9.60;6.10;;;8.00;99.90;;;;;;4170607;28;20039;-66
2022/11/28 07:34:41;;;;;;;10.07;6.28;;;8.00;99.90;;;;;;4167877;28;20045;-67
2022/11/28 07:36:41;;;;;;;11.43;5.88;;;8.00;99.90;;;;;;4169474;28;20075;-67
2022/11/28 07:38:46;;;;;;;14.18;6.43;;;8.00;99.90;;;;;;4172014;28;20060;-67
2022/11/28 07:40:47;;;;;;;9.45;5.97;;;8.00;99.90;;;;;;4168603;28;20091;-67
2022/11/28 07:42:47;;;;;;;10.90;5.97;;;8.00;99.90;;;;;;4167289;28;20049;-67
2022/11/28 07:44:48;;;;;;;8.40;5.60;;;8.00;99.90;;;;;;4177066;28;20049;-67
2022/11/28 07:46:49;;;;;;;9.55;5.72;;;8.00;99.90;;;;;;4167168;28;20076;-67
2022/11/28 07:48:49;;;;;;;9.43;5.70;;;8.00;99.90;;;;;;4167617;28;20045;-67
2022/11/28 07:50:50;;;;;;;9.38;5.90;;;8.10;99.90;;;;;;4152464;28;20172;-66
2022/11/28 07:52:50;;;;;;;7.30;5.40;;;8.00;99.90;;;;;;4167620;28;20357;-67
2022/11/28 07:54:51;;;;;;;9.90;5.13;;;8.10;99.90;;;;;;4168189;28;20044;-67
2022/11/28 07:56:52;;;;;;;9.50;5.93;;;8.10;99.90;;;;;;4165234;28;20105;-67
2022/11/28 07:58:52;;;;;;;8.85;5.65;;;8.10;99.90;;;;;;4168430;28;20029;-67
2022/11/28 08:00:53;;;;;;;9.77;5.43;;;8.10;99.90;;;;;;4172236;28;20480;-67
2022/11/28 08:02:53;;;;;;;9.40;5.82;;;8.10;99.90;;;;;;4172715;28;20027;-67
2022/11/28 08:04:54;;;;;;;9.00;6.10;;;8.10;99.90;;;;;;4173002;28;20032;-66
2022/11/28 08:06:55;;;;;;;10.48;6.43;;;8.10;99.90;;;;;;4167817;28;20442;-67
2022/11/28 08:08:59;;;;;;;9.43;5.70;;;8.10;99.90;;;;;;4154116;28;20033;-67
2022/11/28 08:11:01;;;;;;;8.85;6.10;;;8.10;99.90;;;;;;4166359;28;20127;-66
2022/11/28 08:13:02;;;;;;;9.18;5.80;;;8.10;99.90;;;;;;4166197;28;20109;-67
2022/11/28 08:15:03;;;;;;;11.27;6.00;;;8.10;99.90;;;;;;4166441;28;20029;-66
2022/11/28 08:17:03;;;;;;;8.95;5.65;;;8.10;99.90;;;;;;4169080;28;20025;-67
2022/11/28 08:19:04;;;;;;;10.02;5.68;;;8.10;99.90;;;;;;4170695;28;20037;-66
2022/11/28 08:21:07;;;;;;;9.77;5.93;;;8.10;99.90;;;;;;4169772;28;20084;-67
2022/11/28 08:23:08;;;;;;;8.82;5.63;;;8.10;99.90;;;;;;4165976;28;20041;-67
2022/11/28 08:25:08;;;;;;;8.02;5.35;;;8.10;99.90;;;;;;4168681;28;20352;-67
2022/11/28 08:27:09;;;;;;;9.27;5.57;;;8.10;99.90;;;;;;4167905;28;20087;-65
2022/11/28 08:29:10;;;;;;;9.95;5.55;;;8.10;99.90;;;;;;4167120;28;20179;-67
2022/11/28 08:31:25;;;;;;;10.63;5.90;;;8.10;99.90;;;;;;4171196;28;20067;-66
2022/11/28 08:33:26;;;;;;;7.95;6.10;;;8.10;99.90;;;;;;4166213;28;20066;-67
2022/11/28 08:35:27;;;;;;;9.00;5.53;;;8.10;99.90;;;;;;4165515;28;20128;-67
2022/11/28 08:37:28;;;;;;;9.43;6.00;;;8.10;99.90;;;;;;4166985;28;20369;-66
2022/11/28 08:39:28;;;;;;;11.55;6.07;;;8.10;99.90;;;;;;4167976;28;20029;-66
2022/11/28 08:41:29;;;;;;;9.27;6.05;;;8.10;99.90;;;;;;4163789;28;20080;-68
2022/11/28 08:43:29;;;;;;;8.98;5.40;;;8.10;99.90;;;;;;4165540;28;20036;-67
2022/11/28 08:45:31;;;;;;;8.73;5.72;;;8.10;99.90;;;;;;4166321;28;20515;-67
2022/11/28 08:47:32;;;;;;;11.40;6.00;;;8.10;99.90;;;;;;4165220;28;20492;-66
2022/11/28 08:49:34;;;;;;;7.63;5.63;;;8.10;99.90;;;;;;4168206;28;20171;-67
2022/11/28 08:51:35;;;;;;;;;;;8.20;99.90;;;;;;4165309;28;20159;-67
2022/11/28 08:53:35;;;;;;;9.40;5.30;;;8.20;99.90;;;;;;4168585;28;20002;-66
2022/11/28 08:55:37;;;;;;;9.60;5.97;;;8.20;99.90;;;;;;4147677;28;20045;-67
2022/11/28 08:57:38;;;;;;;9.77;6.43;;;8.20;99.90;;;;;;4168268;28;20036;-67
2022/11/28 08:59:38;;;;;;;10.40;5.85;;;8.10;99.90;;;;;;4164741;28;20279;-66
2022/11/28 09:01:39;;;;;;;11.10;6.55;;;8.20;99.90;;;;;;4165937;28;20041;-66
2022/11/28 09:03:40;;;;;;;10.00;6.45;;;8.10;99.90;;;;;;4164239;28;20561;-66
2022/11/28 09:05:41;;;;;;;9.68;6.10;;;8.10;99.90;;;;;;4147490;28;20038;-67
2022/11/28 09:07:42;;;;;;;10.20;5.93;;;8.20;99.90;;;;;;4167629;28;20057;-66
2022/11/28 09:09:42;;;;;;;9.55;5.93;;;8.20;99.90;;;;;;4165280;28;20374;-66
2022/11/28 09:11:43;;;;;;;9.90;6.18;;;8.10;99.90;;;;;;4166045;28;20452;-66
2022/11/28 09:13:44;;;;;;;11.23;6.30;;;8.20;99.90;;;;;;4163562;28;20533;-66
2022/11/28 09:15:45;;;;;;;8.77;6.30;;;8.10;99.90;;;;;;4165765;28;20453;-66
2022/11/28 09:17:46;;;;;;;7.97;5.60;;;8.10;99.90;;;;;;4168474;28;20039;-67
2022/11/28 09:19:46;;;;;;;10.38;6.05;;;8.20;99.90;;;;;;4168258;28;20551;-66
2022/11/28 09:21:47;;;;;;;10.45;6.57;;;8.20;99.90;;;;;;4166729;28;20099;-66
2022/11/28 09:23:48;;;;;;;9.88;6.30;;;8.10;99.90;;;;;;4165840;28;20931;-66
2022/11/28 09:25:48;;;;;;;8.70;6.43;;;8.10;99.90;;;;;;4150254;28;20072;-66
2022/11/28 09:27:49;;;;;;;9.82;6.10;;;8.20;99.90;;;;;;4169970;28;20289;-66
2022/11/28 09:29:50;;;;;;;10.20;6.20;;;8.10;99.90;;;;;;4165111;28;20040;-66
2022/11/28 09:31:50;;;;;;;9.45;6.03;;;8.20;99.90;;;;;;4163955;28;20412;-66
2022/11/28 09:33:52;;;;;;;11.07;5.85;;;8.20;99.90;;;;;;4167157;28;20091;-65
2022/11/28 09:35:54;;;;;;;10.20;6.57;;;8.20;99.90;;;;;;4171338;28;20040;-66
2022/11/28 09:37:56;;;;;;;11.98;6.93;;;8.20;99.90;;;;;;4145652;28;20038;-66
2022/11/28 09:39:56;;;;;;;8.23;6.00;;;8.20;99.90;;;;;;4169335;28;20552;-67
2022/11/28 09:42:26;;;;;;;11.00;6.45;;;8.20;99.90;;;;;;4170862;28;20059;-67
2022/11/28 09:44:49;;;;;;;13.15;6.55;;;8.20;99.90;;;;;;4148415;28;20078;-67
2022/11/28 09:46:53;;;;;;;13.65;6.43;;;8.20;99.90;;;;;;4165686;28;20125;-66
2022/11/28 09:48:58;;;;;;;14.63;7.30;;;8.20;99.90;;;;;;4168028;28;20029;-66
2022/11/28 09:51:24;;;;;;;10.18;6.55;;;8.20;99.90;;;;;;4166158;28;20048;-66
2022/11/28 09:53:49;;;;;;;13.32;7.13;;;8.20;99.90;;;;;;4169303;28;20041;-66
2022/11/28 09:55:54;;;;;;;10.45;6.90;;;8.20;99.90;;;;;;4168387;28;20064;-66
2022/11/28 09:57:55;;;;;;;10.82;6.53;;;8.20;99.90;;;;;;4164698;28;20028;-66
2022/11/28 09:59:56;;;;;;;8.52;6.22;;;8.20;99.90;;;;;;4167683;28;20104;-68
2022/11/28 10:02:21;;;;;;;9.52;6.38;;;8.20;99.90;;;;;;4168353;28;20112;-67
2022/11/28 10:04:36;;;;;;;13.32;6.90;;;8.20;99.90;;;;;;4168204;28;20116;-66
2022/11/28 10:06:37;;;;;;;11.13;6.60;;;8.20;99.90;;;;;;4167274;28;20106;-66
2022/11/28 10:08:57;;;;;;;11.75;6.38;;;8.20;99.90;;;;;;4168285;28;20482;-67
2022/11/28 10:11:10;;;;;;;9.77;6.30;;;8.20;99.90;;;;;;4167201;28;20039;-67
2022/11/28 10:13:32;;;;;;;9.60;6.53;;;8.20;99.90;;;;;;4165004;28;20032;-66
2022/11/28 10:15:44;;;;;;;12.48;6.85;;;8.20;99.90;;;;;;4164486;28;20029;-66
2022/11/28 10:17:49;;;;;;;10.98;6.55;;;8.20;99.90;;;;;;4167319;28;20520;-66
2022/11/28 10:19:56;;;;;;;11.52;6.65;;;8.20;99.90;;;;;;4168829;28;20441;-66
2022/11/28 10:21:59;;;;;;;16.95;8.07;;;8.30;99.90;;;;;;4149794;28;20060;-67
2022/11/28 10:24:14;;;;;;;11.77;7.35;;;8.20;99.90;;;;;;4167903;28;20025;-67
2022/11/28 10:26:34;;;;;;;9.88;6.60;;;8.30;99.90;;;;;;4168338;28;20029;-67
2022/11/28 10:28:38;;;;;;;11.43;7.10;;;8.30;99.90;;;;;;4166579;28;20033;-67
2022/11/28 10:30:41;;;;;;;10.77;6.35;;;8.30;99.90;;;;;;4166692;28;20475;-67
2022/11/28 10:32:47;;;;;;;10.68;6.35;;;8.30;99.90;;;;;;4164594;28;20175;-67
2022/11/28 10:34:54;;;;;;;9.52;6.75;;;8.30;99.90;;;;;;4164952;28;20492;-66
2022/11/28 10:37:28;;;;;;;9.35;6.05;;;8.40;99.90;;;;;;4135718;28;20153;-67
2022/11/28 10:39:47;;;;;;;12.15;7.03;;;8.40;99.90;;;;;;4073463;28;20045;-66
2022/11/28 10:42:19;;;;;;;8.98;6.60;;;8.40;99.90;;;;;;4093521;28;20127;-66
2022/11/28 10:45:09;;;;;;;9.93;6.35;;;8.40;99.90;;;;;;4099732;28;20507;-67
2022/11/28 10:47:52;;;;;;;15.20;6.97;;;8.50;99.90;;;;;;4038066;28;20041;-66
2022/11/28 10:50:38;;;;;;;10.35;6.68;;;8.40;99.90;;;;;;4080749;28;20057;-67
2022/11/28 10:53:04;;;;;;;8.73;5.97;;;8.50;99.90;;;;;;4087832;28;20040;-66
2022/11/28 10:55:42;;;;;;;10.65;6.75;;;8.50;99.90;;;;;;4033444;28;20106;-66
2022/11/28 10:58:19;;;;;;;10.65;6.47;;;8.60;99.90;;;;;;4090021;28;20048;-66
2022/11/28 11:00:40;;;;;;;11.25;7.32;;;8.60;99.90;;;;;;4018192;28;20048;-66